sensor_id;sensor_type;location;lat;lon;timestamp;pressure;altitude;pressure_sealevel;temperature;humidity
18275;BME280;19470;49.322;7.218;2022-12-31T00:00:22;98299.88;;;14.75;100.00
18275;BME280;19470;49.322;7.218;2022-12-31T00:02:48;98285.75;;;15.08;100.00
18275;BME280;19470;49.322;7.218;2022-12-31T00:05:16;98265.84;;;14.96;100.00
18275;BME280;19470;49.322;7.218;2022-12-31T00:07:43;98265.34;;;14.94;100.00
18275;BME280;19470;49.322;7.218;2022-12-31T00:10:09;98312.38;;;14.79;100.00
18275;BME280;19470;49.322;7.218;2022-12-31T00:12:36;98282.88;;;15.00;100.00
18275;BME280;19470;49.322;7.218;2022-12-31T00:15:02;98266.25;;;15.13;100.00
18275;BME280;19470;49.322;7.218;2022-12-31T00:17:29;98280.91;;;14.81;100.00
18275;BME280;19470;49.322;7.218;2022-12-31T00:19:55;98285.25;;;15.06;100.00
18275;BME280;19470;49.322;7.218;2022-12-31T00:22:23;98294.63;;;14.99;100.00
18275;BME280;19470;49.322;7.218;2022-12-31T00:24:50;98287.66;;;15.32;100.00
18275;BME280;19470;49.322;7.218;2022-12-31T00:27:16;98271.38;;;15.04;100.00
18275;BME280;19470;49.322;7.218;2022-12-31T00:29:43;98278.91;;;15.26;100.00
18275;BME280;19470;49.322;7.218;2022-12-31T00:32:09;98268.94;;;15.08;100.00
18275;BME280;19470;49.322;7.218;2022-12-31T00:34:36;98282.09;;;15.28;100.00
18275;BME280;19470;49.322;7.218;2022-12-31T00:37:02;98325.47;;;15.10;100.00
18275;BME280;19470;49.322;7.218;2022-12-31T00:39:30;98280.22;;;15.00;100.00
18275;BME280;19470;49.322;7.218;2022-12-31T00:41:56;98302.44;;;15.24;100.00
18275;BME280;19470;49.322;7.218;2022-12-31T00:44:23;98307.09;;;15.38;100.00
18275;BME280;19470;49.322;7.218;2022-12-31T00:46:49;98294.41;;;15.53;100.00
18275;BME280;19470;49.322;7.218;2022-12-31T00:49:16;98313.09;;;15.24;100.00
18275;BME280;19470;49.322;7.218;2022-12-31T00:51:42;98300.41;;;15.40;100.00
18275;BME280;19470;49.322;7.218;2022-12-31T00:54:11;98301.34;;;15.25;100.00
18275;BME280;19470;49.322;7.218;2022-12-31T00:56:38;98335.28;;;15.49;100.00
18275;BME280;19470;49.322;7.218;2022-12-31T00:59:05;98303.63;;;15.37;100.00
18275;BME280;19470;49.322;7.218;2022-12-31T01:01:33;98327.31;;;15.44;100.00
18275;BME280;19470;49.322;7.218;2022-12-31T01:04:02;98298.63;;;15.30;100.00
18275;BME280;19470;49.322;7.218;2022-12-31T01:06:29;98313.00;;;15.34;100.00
18275;BME280;19470;49.322;7.218;2022-12-31T01:08:56;98323.00;;;15.48;100.00
18275;BME280;19470;49.322;7.218;2022-12-31T01:11:23;98336.38;;;15.43;100.00
18275;BME280;19470;49.322;7.218;2022-12-31T01:13:56;98336.03;;;15.54;100.00
18275;BME280;19470;49.322;7.218;2022-12-31T01:16:25;98325.94;;;15.46;100.00
18275;BME280;19470;49.322;7.218;2022-12-31T01:18:52;98330.72;;;15.49;100.00
18275;BME280;19470;49.322;7.218;2022-12-31T01:21:19;98331.94;;;15.62;100.00
18275;BME280;19470;49.322;7.218;2022-12-31T01:23:46;98330.69;;;15.25;100.00
18275;BME280;19470;49.322;7.218;2022-12-31T01:26:14;98349.25;;;15.36;100.00
18275;BME280;19470;49.322;7.218;2022-12-31T01:28:41;98343.41;;;15.68;100.00
18275;BME280;19470;49.322;7.218;2022-12-31T01:31:10;98354.69;;;15.54;100.00
18275;BME280;19470;49.322;7.218;2022-12-31T01:33:37;98358.38;;;15.64;100.00
18275;BME280;19470;49.322;7.218;2022-12-31T01:36:07;98364.91;;;15.47;100.00
18275;BME280;19470;49.322;7.218;2022-12-31T01:38:35;98364.53;;;15.30;100.00
18275;BME280;19470;49.322;7.218;2022-12-31T01:41:02;98375.00;;;15.50;100.00
18275;BME280;19470;49.322;7.218;2022-12-31T01:43:44;98373.53;;;15.68;100.00
18275;BME280;19470;49.322;7.218;2022-12-31T01:46:16;98375.19;;;15.64;100.00
18275;BME280;19470;49.322;7.218;2022-12-31T01:48:46;98397.41;;;15.54;100.00
18275;BME280;19470;49.322;7.218;2022-12-31T01:51:15;98402.25;;;15.81;100.00
18275;BME280;19470;49.322;7.218;2022-12-31T01:53:42;98402.94;;;15.63;100.00
18275;BME280;19470;49.322;7.218;2022-12-31T01:56:09;98404.97;;;15.42;100.00
18275;BME280;19470;49.322;7.218;2022-12-31T01:58:38;98410.78;;;15.15;100.00
18275;BME280;19470;49.322;7.218;2022-12-31T02:01:06;98415.56;;;15.18;100.00
18275;BME280;19470;49.322;7.218;2022-12-31T02:03:35;98404.81;;;15.28;100.00
18275;BME280;19470;49.322;7.218;2022-12-31T02:06:05;98409.50;;;15.07;100.00
18275;BME280;19470;49.322;7.218;2022-12-31T02:08:34;98420.00;;;14.94;100.00
18275;BME280;19470;49.322;7.218;2022-12-31T02:11:15;98418.25;;;15.13;100.00
18275;BME280;19470;49.322;7.218;2022-12-31T02:13:44;98412.75;;;15.33;100.00
18275;BME280;19470;49.322;7.218;2022-12-31T02:16:15;98415.00;;;15.21;100.00
18275;BME280;19470;49.322;7.218;2022-12-31T02:18:48;98419.72;;;15.34;100.00
18275;BME280;19470;49.322;7.218;2022-12-31T02:21:30;98409.03;;;15.34;100.00
18275;BME280;19470;49.322;7.218;2022-12-31T02:27:02;98416.06;;;15.25;100.00
18275;BME280;19470;49.322;7.218;2022-12-31T02:30:00;98404.34;;;15.21;100.00
18275;BME280;19470;49.322;7.218;2022-12-31T02:32:34;98420.19;;;15.42;100.00
18275;BME280;19470;49.322;7.218;2022-12-31T02:35:06;98433.28;;;15.38;100.00
18275;BME280;19470;49.322;7.218;2022-12-31T02:37:37;98399.56;;;15.18;100.00
18275;BME280;19470;49.322;7.218;2022-12-31T02:40:08;98443.28;;;15.22;100.00
18275;BME280;19470;49.322;7.218;2022-12-31T02:42:36;98426.41;;;15.66;100.00
18275;BME280;19470;49.322;7.218;2022-12-31T02:45:05;98419.25;;;15.91;100.00
18275;BME280;19470;49.322;7.218;2022-12-31T02:47:42;98402.59;;;15.41;100.00
18275;BME280;19470;49.322;7.218;2022-12-31T02:50:26;98408.38;;;15.48;100.00
18275;BME280;19470;49.322;7.218;2022-12-31T02:53:06;98413.00;;;15.71;100.00
18275;BME280;19470;49.322;7.218;2022-12-31T02:55:40;98408.41;;;15.82;100.00
18275;BME280;19470;49.322;7.218;2022-12-31T02:58:13;98417.63;;;15.60;100.00
18275;BME280;19470;49.322;7.218;2022-12-31T03:00:48;98416.59;;;15.91;100.00
18275;BME280;19470;49.322;7.218;2022-12-31T03:03:34;98398.53;;;16.06;100.00
18275;BME280;19470;49.322;7.218;2022-12-31T03:06:02;98421.03;;;16.00;100.00
18275;BME280;19470;49.322;7.218;2022-12-31T03:08:29;98393.97;;;15.83;100.00
18275;BME280;19470;49.322;7.218;2022-12-31T03:10:56;98405.00;;;16.24;100.00
18275;BME280;19470;49.322;7.218;2022-12-31T03:13:22;98401.88;;;16.17;100.00
18275;BME280;19470;49.322;7.218;2022-12-31T03:15:49;98413.25;;;16.28;100.00
18275;BME280;19470;49.322;7.218;2022-12-31T03:18:21;98388.25;;;15.90;100.00
18275;BME280;19470;49.322;7.218;2022-12-31T03:21:11;98401.19;;;16.30;100.00
18275;BME280;19470;49.322;7.218;2022-12-31T03:23:56;98405.44;;;16.31;100.00
18275;BME280;19470;49.322;7.218;2022-12-31T03:26:39;98391.00;;;16.32;100.00
18275;BME280;19470;49.322;7.218;2022-12-31T03:29:06;98407.78;;;16.38;100.00
18275;BME280;19470;49.322;7.218;2022-12-31T03:31:34;98405.22;;;16.52;100.00
18275;BME280;19470;49.322;7.218;2022-12-31T03:34:01;98433.13;;;16.41;100.00
18275;BME280;19470;49.322;7.218;2022-12-31T03:36:28;98430.94;;;16.67;100.00
18275;BME280;19470;49.322;7.218;2022-12-31T03:38:54;98423.00;;;16.61;100.00
18275;BME280;19470;49.322;7.218;2022-12-31T03:41:21;98427.53;;;16.37;100.00
18275;BME280;19470;49.322;7.218;2022-12-31T03:43:47;98426.59;;;16.28;100.00
18275;BME280;19470;49.322;7.218;2022-12-31T03:46:13;98440.03;;;16.47;100.00
18275;BME280;19470;49.322;7.218;2022-12-31T03:48:41;98435.53;;;16.42;100.00
18275;BME280;19470;49.322;7.218;2022-12-31T03:51:08;98439.13;;;16.51;100.00
18275;BME280;19470;49.322;7.218;2022-12-31T03:53:34;98438.88;;;16.05;100.00
18275;BME280;19470;49.322;7.218;2022-12-31T03:56:01;98465.22;;;15.88;100.00
18275;BME280;19470;49.322;7.218;2022-12-31T03:58:27;98443.06;;;16.11;100.00
18275;BME280;19470;49.322;7.218;2022-12-31T04:00:54;98442.84;;;16.07;100.00
18275;BME280;19470;49.322;7.218;2022-12-31T04:03:20;98432.09;;;16.13;100.00
18275;BME280;19470;49.322;7.218;2022-12-31T04:05:52;98444.41;;;16.38;100.00
18275;BME280;19470;49.322;7.218;2022-12-31T04:08:19;98426.19;;;16.40;100.00
18275;BME280;19470;49.322;7.218;2022-12-31T04:10:45;98450.00;;;16.36;100.00
18275;BME280;19470;49.322;7.218;2022-12-31T04:13:12;98435.69;;;16.27;100.00
18275;BME280;19470;49.322;7.218;2022-12-31T04:15:38;98439.53;;;16.64;100.00
18275;BME280;19470;49.322;7.218;2022-12-31T04:18:04;98471.13;;;16.38;100.00
18275;BME280;19470;49.322;7.218;2022-12-31T04:20:31;98453.41;;;16.42;100.00
18275;BME280;19470;49.322;7.218;2022-12-31T04:22:59;98448.94;;;16.61;100.00
18275;BME280;19470;49.322;7.218;2022-12-31T04:25:25;98446.09;;;16.76;100.00
18275;BME280;19470;49.322;7.218;2022-12-31T04:27:52;98430.22;;;16.37;100.00
18275;BME280;19470;49.322;7.218;2022-12-31T04:30:18;98450.41;;;16.72;100.00
18275;BME280;19470;49.322;7.218;2022-12-31T04:32:45;98431.81;;;16.62;100.00
18275;BME280;19470;49.322;7.218;2022-12-31T04:35:11;98449.78;;;16.56;100.00
18275;BME280;19470;49.322;7.218;2022-12-31T04:37:38;98432.50;;;16.49;100.00
18275;BME280;19470;49.322;7.218;2022-12-31T04:40:07;98444.22;;;16.77;100.00
18275;BME280;19470;49.322;7.218;2022-12-31T04:42:34;98439.75;;;16.67;100.00
18275;BME280;19470;49.322;7.218;2022-12-31T04:45:01;98466.50;;;16.67;100.00
18275;BME280;19470;49.322;7.218;2022-12-31T04:47:27;98446.59;;;16.78;100.00
18275;BME280;19470;49.322;7.218;2022-12-31T04:49:54;98465.41;;;16.68;100.00
18275;BME280;19470;49.322;7.218;2022-12-31T04:52:20;98460.25;;;16.77;100.00
18275;BME280;19470;49.322;7.218;2022-12-31T04:54:47;98458.53;;;16.86;100.00
18275;BME280;19470;49.322;7.218;2022-12-31T04:57:15;98483.78;;;16.51;100.00
18275;BME280;19470;49.322;7.218;2022-12-31T04:59:41;98454.78;;;16.87;100.00
18275;BME280;19470;49.322;7.218;2022-12-31T05:02:08;98487.50;;;16.79;100.00
18275;BME280;19470;49.322;7.218;2022-12-31T05:04:34;98486.75;;;16.73;100.00
18275;BME280;19470;49.322;7.218;2022-12-31T05:07:01;98470.69;;;17.16;100.00
18275;BME280;19470;49.322;7.218;2022-12-31T05:09:27;98471.50;;;16.74;100.00
18275;BME280;19470;49.322;7.218;2022-12-31T05:11:55;98462.94;;;16.96;100.00
18275;BME280;19470;49.322;7.218;2022-12-31T05:14:23;98463.25;;;17.13;100.00
18275;BME280;19470;49.322;7.218;2022-12-31T05:16:49;98456.25;;;16.74;100.00
18275;BME280;19470;49.322;7.218;2022-12-31T05:19:16;98459.19;;;16.97;100.00
18275;BME280;19470;49.322;7.218;2022-12-31T05:21:42;98454.03;;;16.81;100.00
18275;BME280;19470;49.322;7.218;2022-12-31T05:24:29;98478.91;;;16.58;100.00
18275;BME280;19470;49.322;7.218;2022-12-31T05:26:55;98470.16;;;16.76;100.00
18275;BME280;19470;49.322;7.218;2022-12-31T05:29:23;98456.88;;;17.09;100.00
18275;BME280;19470;49.322;7.218;2022-12-31T05:31:50;98471.06;;;16.43;100.00
18275;BME280;19470;49.322;7.218;2022-12-31T05:34:16;98464.97;;;16.61;100.00
18275;BME280;19470;49.322;7.218;2022-12-31T05:36:43;98456.72;;;16.81;100.00
18275;BME280;19470;49.322;7.218;2022-12-31T05:39:09;98458.16;;;16.74;100.00
18275;BME280;19470;49.322;7.218;2022-12-31T05:41:36;98473.78;;;16.61;100.00
18275;BME280;19470;49.322;7.218;2022-12-31T05:44:02;98468.91;;;16.45;100.00
18275;BME280;19470;49.322;7.218;2022-12-31T05:46:30;98464.91;;;16.66;100.00
18275;BME280;19470;49.322;7.218;2022-12-31T05:48:57;98479.75;;;16.77;100.00
18275;BME280;19470;49.322;7.218;2022-12-31T05:51:23;98476.31;;;16.77;100.00
18275;BME280;19470;49.322;7.218;2022-12-31T05:53:50;98476.59;;;16.75;100.00
18275;BME280;19470;49.322;7.218;2022-12-31T05:56:16;98457.75;;;16.85;100.00
18275;BME280;19470;49.322;7.218;2022-12-31T05:58:44;98463.53;;;16.69;100.00
18275;BME280;19470;49.322;7.218;2022-12-31T06:01:11;98480.59;;;16.97;100.00
18275;BME280;19470;49.322;7.218;2022-12-31T06:03:39;98473.19;;;16.89;100.00
18275;BME280;19470;49.322;7.218;2022-12-31T06:06:06;98498.81;;;16.71;100.00
18275;BME280;19470;49.322;7.218;2022-12-31T06:08:33;98473.72;;;16.67;100.00
18275;BME280;19470;49.322;7.218;2022-12-31T06:10:59;98473.94;;;16.75;100.00
18275;BME280;19470;49.322;7.218;2022-12-31T06:13:26;98485.16;;;16.96;100.00
18275;BME280;19470;49.322;7.218;2022-12-31T06:15:52;98482.38;;;16.82;100.00
18275;BME280;19470;49.322;7.218;2022-12-31T06:18:19;98481.91;;;16.99;100.00
18275;BME280;19470;49.322;7.218;2022-12-31T06:20:49;98485.44;;;16.71;100.00
18275;BME280;19470;49.322;7.218;2022-12-31T06:23:16;98480.78;;;16.81;100.00
18275;BME280;19470;49.322;7.218;2022-12-31T06:25:42;98496.66;;;16.49;100.00
18275;BME280;19470;49.322;7.218;2022-12-31T06:28:09;98496.09;;;16.52;100.00
18275;BME280;19470;49.322;7.218;2022-12-31T06:30:38;98500.78;;;16.60;100.00
18275;BME280;19470;49.322;7.218;2022-12-31T06:33:05;98501.31;;;16.86;100.00
18275;BME280;19470;49.322;7.218;2022-12-31T06:35:37;98505.47;;;16.73;100.00
18275;BME280;19470;49.322;7.218;2022-12-31T06:38:04;98506.91;;;16.66;100.00
18275;BME280;19470;49.322;7.218;2022-12-31T06:40:31;98496.53;;;16.59;100.00
18275;BME280;19470;49.322;7.218;2022-12-31T06:42:57;98505.75;;;16.48;100.00
18275;BME280;19470;49.322;7.218;2022-12-31T06:45:24;98512.44;;;16.45;100.00
18275;BME280;19470;49.322;7.218;2022-12-31T06:47:50;98516.34;;;16.58;100.00
18275;BME280;19470;49.322;7.218;2022-12-31T06:50:17;98519.97;;;16.67;100.00
18275;BME280;19470;49.322;7.218;2022-12-31T06:52:43;98521.25;;;16.46;100.00
18275;BME280;19470;49.322;7.218;2022-12-31T06:55:12;98514.09;;;16.41;100.00
18275;BME280;19470;49.322;7.218;2022-12-31T06:57:39;98510.06;;;16.68;100.00
18275;BME280;19470;49.322;7.218;2022-12-31T07:00:08;98508.56;;;16.32;100.00
18275;BME280;19470;49.322;7.218;2022-12-31T07:02:51;98508.53;;;16.61;100.00
18275;BME280;19470;49.322;7.218;2022-12-31T07:05:26;98520.91;;;16.81;100.00
18275;BME280;19470;49.322;7.218;2022-12-31T07:08:00;98518.59;;;16.46;100.00
18275;BME280;19470;49.322;7.218;2022-12-31T07:10:37;98519.00;;;16.58;100.00
18275;BME280;19470;49.322;7.218;2022-12-31T07:13:18;98530.97;;;16.36;100.00
18275;BME280;19470;49.322;7.218;2022-12-31T07:16:02;98519.97;;;16.43;100.00
18275;BME280;19470;49.322;7.218;2022-12-31T07:18:39;98539.97;;;16.46;100.00
18275;BME280;19470;49.322;7.218;2022-12-31T07:21:12;98547.72;;;16.47;100.00
18275;BME280;19470;49.322;7.218;2022-12-31T07:23:40;98543.72;;;16.45;100.00
18275;BME280;19470;49.322;7.218;2022-12-31T07:26:14;98543.44;;;16.75;100.00
18275;BME280;19470;49.322;7.218;2022-12-31T07:28:52;98566.00;;;16.35;100.00
18275;BME280;19470;49.322;7.218;2022-12-31T07:31:28;98556.13;;;16.35;100.00
18275;BME280;19470;49.322;7.218;2022-12-31T07:34:00;98569.84;;;16.53;100.00
18275;BME280;19470;49.322;7.218;2022-12-31T07:36:51;98560.84;;;16.44;100.00
18275;BME280;19470;49.322;7.218;2022-12-31T07:39:25;98564.97;;;16.31;100.00
18275;BME280;19470;49.322;7.218;2022-12-31T07:42:00;98556.44;;;16.58;100.00
18275;BME280;19470;49.322;7.218;2022-12-31T07:44:36;98565.06;;;16.50;100.00
18275;BME280;19470;49.322;7.218;2022-12-31T07:47:18;98565.59;;;16.52;100.00
18275;BME280;19470;49.322;7.218;2022-12-31T07:49:46;98573.53;;;16.33;100.00
18275;BME280;19470;49.322;7.218;2022-12-31T07:52:13;98583.56;;;16.75;100.00
18275;BME280;19470;49.322;7.218;2022-12-31T07:54:39;98582.63;;;16.56;100.00
18275;BME280;19470;49.322;7.218;2022-12-31T07:57:08;98591.28;;;16.48;100.00
18275;BME280;19470;49.322;7.218;2022-12-31T07:59:46;98592.25;;;16.86;100.00
18275;BME280;19470;49.322;7.218;2022-12-31T08:02:23;98590.16;;;16.83;100.00
18275;BME280;19470;49.322;7.218;2022-12-31T08:05:00;98596.88;;;17.04;100.00
18275;BME280;19470;49.322;7.218;2022-12-31T08:07:36;98594.69;;;16.53;100.00
18275;BME280;19470;49.322;7.218;2022-12-31T08:10:23;98617.56;;;16.94;100.00
18275;BME280;19470;49.322;7.218;2022-12-31T08:12:54;98611.72;;;17.16;100.00
18275;BME280;19470;49.322;7.218;2022-12-31T08:15:26;98617.75;;;17.02;100.00
18275;BME280;19470;49.322;7.218;2022-12-31T08:17:53;98611.53;;;16.83;100.00
18275;BME280;19470;49.322;7.218;2022-12-31T08:20:19;98611.66;;;16.73;100.00
18275;BME280;19470;49.322;7.218;2022-12-31T08:23:02;98614.88;;;16.99;100.00
18275;BME280;19470;49.322;7.218;2022-12-31T08:25:36;98623.56;;;17.09;100.00
18275;BME280;19470;49.322;7.218;2022-12-31T08:28:15;98621.56;;;16.96;100.00
18275;BME280;19470;49.322;7.218;2022-12-31T08:30:53;98620.03;;;16.61;100.00
18275;BME280;19470;49.322;7.218;2022-12-31T08:33:25;98624.69;;;16.79;100.00
18275;BME280;19470;49.322;7.218;2022-12-31T08:36:07;98622.66;;;16.95;100.00
18275;BME280;19470;49.322;7.218;2022-12-31T08:38:43;98623.06;;;17.26;100.00
18275;BME280;19470;49.322;7.218;2022-12-31T08:41:16;98627.88;;;17.29;100.00
18275;BME280;19470;49.322;7.218;2022-12-31T08:43:54;98634.09;;;17.01;100.00
18275;BME280;19470;49.322;7.218;2022-12-31T08:46:28;98630.72;;;17.14;100.00
18275;BME280;19470;49.322;7.218;2022-12-31T08:48:56;98628.78;;;17.20;100.00
18275;BME280;19470;49.322;7.218;2022-12-31T08:51:25;98626.69;;;17.17;100.00
18275;BME280;19470;49.322;7.218;2022-12-31T08:53:52;98628.34;;;17.36;100.00
18275;BME280;19470;49.322;7.218;2022-12-31T08:56:27;98622.38;;;17.82;100.00
18275;BME280;19470;49.322;7.218;2022-12-31T08:59:10;98634.81;;;17.30;100.00
18275;BME280;19470;49.322;7.218;2022-12-31T09:01:48;98625.44;;;17.52;100.00
18275;BME280;19470;49.322;7.218;2022-12-31T09:04:24;98628.09;;;17.76;100.00
18275;BME280;19470;49.322;7.218;2022-12-31T09:06:57;98630.88;;;17.47;100.00
18275;BME280;19470;49.322;7.218;2022-12-31T09:09:35;98640.59;;;16.95;100.00
18275;BME280;19470;49.322;7.218;2022-12-31T09:12:09;98639.66;;;16.80;100.00
18275;BME280;19470;49.322;7.218;2022-12-31T09:14:43;98634.94;;;16.96;100.00
18275;BME280;19470;49.322;7.218;2022-12-31T09:17:26;98633.78;;;17.02;100.00
18275;BME280;19470;49.322;7.218;2022-12-31T09:19:57;98638.13;;;16.98;100.00
18275;BME280;19470;49.322;7.218;2022-12-31T09:22:24;98646.81;;;17.57;100.00
18275;BME280;19470;49.322;7.218;2022-12-31T09:24:51;98642.91;;;16.77;100.00
18275;BME280;19470;49.322;7.218;2022-12-31T09:27:21;98641.94;;;17.16;100.00
18275;BME280;19470;49.322;7.218;2022-12-31T09:29:56;98639.97;;;17.27;100.00
18275;BME280;19470;49.322;7.218;2022-12-31T09:32:32;98644.66;;;17.78;100.00
18275;BME280;19470;49.322;7.218;2022-12-31T09:35:06;98643.91;;;17.53;100.00
18275;BME280;19470;49.322;7.218;2022-12-31T09:37:44;98642.53;;;17.56;100.00
18275;BME280;19470;49.322;7.218;2022-12-31T09:40:28;98646.47;;;17.82;100.00
18275;BME280;19470;49.322;7.218;2022-12-31T09:43:22;98656.88;;;17.65;100.00
18275;BME280;19470;49.322;7.218;2022-12-31T09:46:09;98645.63;;;17.44;100.00
18275;BME280;19470;49.322;7.218;2022-12-31T09:49:06;98649.84;;;17.50;100.00
18275;BME280;19470;49.322;7.218;2022-12-31T09:51:47;98643.00;;;17.82;100.00
18275;BME280;19470;49.322;7.218;2022-12-31T09:54:38;98657.91;;;17.45;100.00
18275;BME280;19470;49.322;7.218;2022-12-31T09:57:26;98657.63;;;17.90;100.00
18275;BME280;19470;49.322;7.218;2022-12-31T10:00:19;98671.59;;;17.44;100.00
18275;BME280;19470;49.322;7.218;2022-12-31T10:02:59;98669.38;;;17.75;100.00
18275;BME280;19470;49.322;7.218;2022-12-31T10:05:39;98656.41;;;18.01;100.00
18275;BME280;19470;49.322;7.218;2022-12-31T10:08:12;98653.94;;;17.85;100.00
18275;BME280;19470;49.322;7.218;2022-12-31T10:10:49;98654.13;;;17.70;100.00
18275;BME280;19470;49.322;7.218;2022-12-31T10:13:45;98657.63;;;18.27;100.00
18275;BME280;19470;49.322;7.218;2022-12-31T10:16:30;98669.75;;;18.38;100.00
18275;BME280;19470;49.322;7.218;2022-12-31T10:22:21;98667.03;;;18.25;100.00
18275;BME280;19470;49.322;7.218;2022-12-31T10:25:05;98660.38;;;18.55;100.00
18275;BME280;19470;49.322;7.218;2022-12-31T10:27:47;98664.56;;;18.28;100.00
18275;BME280;19470;49.322;7.218;2022-12-31T10:30:19;98651.41;;;18.13;100.00
18275;BME280;19470;49.322;7.218;2022-12-31T10:32:58;98662.78;;;18.05;100.00
18275;BME280;19470;49.322;7.218;2022-12-31T10:35:35;98661.53;;;18.49;100.00
18275;BME280;19470;49.322;7.218;2022-12-31T10:42:06;98648.34;;;17.82;100.00
18275;BME280;19470;49.322;7.218;2022-12-31T10:45:00;98638.56;;;18.10;100.00
18275;BME280;19470;49.322;7.218;2022-12-31T10:48:01;98648.53;;;18.42;100.00
18275;BME280;19470;49.322;7.218;2022-12-31T10:54:24;98661.88;;;18.61;100.00
18275;BME280;19470;49.322;7.218;2022-12-31T10:57:18;98657.22;;;18.34;100.00
18275;BME280;19470;49.322;7.218;2022-12-31T11:00:14;98649.66;;;19.01;98.87
18275;BME280;19470;49.322;7.218;2022-12-31T11:03:24;98649.69;;;19.15;98.32
18275;BME280;19470;49.322;7.218;2022-12-31T11:06:23;98655.47;;;18.43;100.00
18275;BME280;19470;49.322;7.218;2022-12-31T11:09:18;98647.91;;;18.31;100.00
18275;BME280;19470;49.322;7.218;2022-12-31T11:11:56;98640.22;;;19.18;96.79
18275;BME280;19470;49.322;7.218;2022-12-31T11:14:38;98634.00;;;19.72;93.98
18275;BME280;19470;49.322;7.218;2022-12-31T11:17:20;98635.91;;;19.72;92.89
18275;BME280;19470;49.322;7.218;2022-12-31T11:20:02;98630.72;;;19.48;93.01
18275;BME280;19470;49.322;7.218;2022-12-31T11:22:47;98637.94;;;19.38;93.01
18275;BME280;19470;49.322;7.218;2022-12-31T11:25:29;98630.69;;;20.11;86.65
18275;BME280;19470;49.322;7.218;2022-12-31T11:28:16;98633.81;;;19.69;91.09
18275;BME280;19470;49.322;7.218;2022-12-31T11:30:59;98644.81;;;20.39;87.70
18275;BME280;19470;49.322;7.218;2022-12-31T11:33:37;98624.72;;;19.78;90.61
18275;BME280;19470;49.322;7.218;2022-12-31T11:36:12;98624.69;;;19.92;88.56
18275;BME280;19470;49.322;7.218;2022-12-31T11:38:48;98631.50;;;20.97;83.76
18275;BME280;19470;49.322;7.218;2022-12-31T11:41:22;98637.53;;;21.33;80.83
18275;BME280;19470;49.322;7.218;2022-12-31T11:43:55;98640.66;;;22.18;75.81
18275;BME280;19470;49.322;7.218;2022-12-31T11:46:57;98650.59;;;21.92;75.78
18275;BME280;19470;49.322;7.218;2022-12-31T11:49:38;98656.88;;;21.44;79.03
18275;BME280;19470;49.322;7.218;2022-12-31T11:52:35;98642.81;;;22.60;74.11
18275;BME280;19470;49.322;7.218;2022-12-31T11:55:21;98639.19;;;23.03;70.44
18275;BME280;19470;49.322;7.218;2022-12-31T11:57:50;98659.22;;;20.97;79.85
18275;BME280;19470;49.322;7.218;2022-12-31T12:00:20;98655.00;;;21.05;78.78
18275;BME280;19470;49.322;7.218;2022-12-31T12:02:49;98644.88;;;20.79;80.58
18275;BME280;19470;49.322;7.218;2022-12-31T12:05:18;98647.97;;;19.97;85.29
18275;BME280;19470;49.322;7.218;2022-12-31T12:07:45;98640.56;;;20.70;83.09
18275;BME280;19470;49.322;7.218;2022-12-31T12:10:23;98643.88;;;20.22;85.06
18275;BME280;19470;49.322;7.218;2022-12-31T12:12:50;98647.50;;;20.17;86.93
18275;BME280;19470;49.322;7.218;2022-12-31T12:15:21;98631.03;;;20.41;84.34
18275;BME280;19470;49.322;7.218;2022-12-31T12:17:53;98636.63;;;20.00;85.20
18275;BME280;19470;49.322;7.218;2022-12-31T12:20:28;98632.03;;;20.00;85.71
18275;BME280;19470;49.322;7.218;2022-12-31T12:22:57;98624.69;;;19.92;86.66
18275;BME280;19470;49.322;7.218;2022-12-31T12:25:26;98621.53;;;19.26;90.18
18275;BME280;19470;49.322;7.218;2022-12-31T12:28:10;98620.38;;;19.69;87.22
18275;BME280;19470;49.322;7.218;2022-12-31T12:30:44;98630.25;;;19.96;84.93
18275;BME280;19470;49.322;7.218;2022-12-31T12:33:15;98617.31;;;20.20;83.25
18275;BME280;19470;49.322;7.218;2022-12-31T12:35:43;98612.00;;;20.29;83.92
18275;BME280;19470;49.322;7.218;2022-12-31T12:38:14;98599.78;;;20.00;84.21
18275;BME280;19470;49.322;7.218;2022-12-31T12:40:52;98606.91;;;20.50;82.22
18275;BME280;19470;49.322;7.218;2022-12-31T12:43:21;98619.13;;;20.56;79.45
18275;BME280;19470;49.322;7.218;2022-12-31T12:45:56;98597.78;;;20.59;79.33
18275;BME280;19470;49.322;7.218;2022-12-31T12:48:30;98589.97;;;20.80;78.62
18275;BME280;19470;49.322;7.218;2022-12-31T12:50:58;98595.28;;;20.63;80.15
18275;BME280;19470;49.322;7.218;2022-12-31T12:53:37;98588.16;;;20.13;82.37
18275;BME280;19470;49.322;7.218;2022-12-31T12:56:16;98602.13;;;19.79;84.29
18275;BME280;19470;49.322;7.218;2022-12-31T12:58:56;98600.31;;;20.11;82.51
18275;BME280;19470;49.322;7.218;2022-12-31T13:01:33;98592.53;;;19.64;84.27
18275;BME280;19470;49.322;7.218;2022-12-31T13:04:40;98593.94;;;19.62;85.53
18275;BME280;19470;49.322;7.218;2022-12-31T13:07:18;98591.53;;;20.19;80.85
18275;BME280;19470;49.322;7.218;2022-12-31T13:10:00;98590.63;;;20.01;81.39
18275;BME280;19470;49.322;7.218;2022-12-31T13:12:35;98587.84;;;19.92;83.24
18275;BME280;19470;49.322;7.218;2022-12-31T13:15:11;98586.72;;;19.35;86.39
18275;BME280;19470;49.322;7.218;2022-12-31T13:17:56;98588.84;;;19.47;83.91
18275;BME280;19470;49.322;7.218;2022-12-31T13:20:29;98581.13;;;20.04;81.83
18275;BME280;19470;49.322;7.218;2022-12-31T13:23:02;98582.09;;;19.85;80.57
18275;BME280;19470;49.322;7.218;2022-12-31T13:25:44;98573.56;;;19.83;82.75
18275;BME280;19470;49.322;7.218;2022-12-31T13:28:18;98589.13;;;19.59;82.91
18275;BME280;19470;49.322;7.218;2022-12-31T13:30:49;98579.19;;;19.59;83.03
18275;BME280;19470;49.322;7.218;2022-12-31T13:33:19;98578.00;;;19.52;84.30
18275;BME280;19470;49.322;7.218;2022-12-31T13:35:51;98582.88;;;20.00;80.73